Ashland, Oregon
Current Conditions -  °F | °C
As of 6:53 AM on Wednesday 26 Nov 2014 (Local Time) from KMFR Reporting Station
Haze Haze  
Wind Chill: 45°   Ceiling: 200
Heat Index: 45°   Visibility: 2mi
Dew Point: 44°   Wind: 0mph
Humidity: 97%   Direction: NA
Pressure: 30.32"   Gusts: NA
Location:  42.2°N, 122.71°W
Report Text: KMFR 261453Z 00000KT 2SM BR OVC002 07/07 A3032 RMK AO2 SLP268 T00720067 58002 $
Loading
Personal Weather Stations






























Interactive Weather Map New forecast layout! Learn more

10-Day Weather Forecast

Advertisements
Track Severe Weather on mobile